Time,TemperatureF,DewpointF,PressureIn,WindDirection,WindDirectionDegrees,WindSpeedMPH,WindSpeedGustMPH,Humidity,HourlyPrecipIn,Conditions,Clouds,dailyrainin,SolarRadiationWatts/m^2,SoftwareType,DateUTC
2013-01-19 00:02:00,46.0,14.0,-100.00,NNE,17,4.0,6.0,27,0.00,,,0.00,1.000000,,2013-01-19 07:02:00,
2013-01-19 00:33:00,47.0,12.0,-100.00,SE,145,1.0,5.0,24,0.00,,,0.00,1.000000,,2013-01-19 07:33:00,
2013-01-19 01:33:00,43.0,16.0,-100.00,NNE,28,3.0,4.0,33,0.00,,,0.00,1.000000,,2013-01-19 08:33:00,
2013-01-19 01:43:00,43.0,16.0,-100.00,NNE,28,3.0,4.0,33,0.00,,,0.00,1.000000,,2013-01-19 08:43:00,
2013-01-19 01:53:00,43.0,16.0,-100.00,NNE,28,3.0,4.0,33,0.00,,,0.00,1.000000,,2013-01-19 08:53:00,
2013-01-19 02:02:00,43.0,16.0,-100.00,NNE,28,3.0,4.0,33,0.00,,,0.00,1.000000,,2013-01-19 09:02:00,
2013-01-19 02:33:00,42.0,16.0,-100.00,NE,36,2.0,6.0,35,0.00,,,0.00,1.000000,,2013-01-19 09:33:00,
2013-01-19 02:43:00,42.0,16.0,-100.00,NE,36,2.0,6.0,35,0.00,,,0.00,1.000000,,2013-01-19 09:43:00,
2013-01-19 02:52:00,42.0,16.0,-100.00,NE,36,2.0,6.0,35,0.00,,,0.00,1.000000,,2013-01-19 09:52:00,
2013-01-19 03:02:00,42.0,16.0,-100.00,NE,36,2.0,6.0,35,0.00,,,0.00,1.000000,,2013-01-19 10:02:00,
2013-01-19 03:33:00,36.0,15.0,-100.00,NNE,14,4.0,5.0,42,0.00,,,0.00,1.000000,,2013-01-19 10:33:00,
2013-01-19 03:43:00,36.0,15.0,-100.00,NNE,14,4.0,5.0,42,0.00,,,0.00,1.000000,,2013-01-19 10:43:00,
2013-01-19 03:53:00,36.0,15.0,-100.00,NNE,14,4.0,5.0,42,0.00,,,0.00,1.000000,,2013-01-19 10:53:00,
2013-01-19 04:02:00,36.0,15.0,-100.00,NNE,14,4.0,5.0,42,0.00,,,0.00,1.000000,,2013-01-19 11:02:00,
2013-01-19 05:48:00,37.0,15.0,-100.00,North,4,3.0,5.0,40,0.00,,,-99.99,1.000000,,2013-01-19 12:48:00,
2013-01-19 05:53:00,37.0,15.0,-100.00,North,4,3.0,5.0,40,0.00,,,-99.99,1.000000,,2013-01-19 12:53:00,
2013-01-19 06:02:00,37.0,15.0,-100.00,North,4,3.0,5.0,40,0.00,,,-99.99,1.000000,,2013-01-19 13:02:00,
2013-01-19 06:34:00,35.0,16.0,-100.00,North,355,4.0,5.0,46,0.00,,,0.00,0.000000,,2013-01-19 13:34:00,
2013-01-19 06:43:00,35.0,16.0,-100.00,North,355,4.0,5.0,46,0.00,,,0.00,0.000000,,2013-01-19 13:43:00,
2013-01-19 06:53:00,35.0,16.0,-100.00,North,355,4.0,5.0,46,0.00,,,0.00,0.000000,,2013-01-19 13:53:00,
2013-01-19 07:02:00,35.0,16.0,-100.00,North,355,4.0,5.0,46,0.00,,,0.00,0.000000,,2013-01-19 14:02:00,
2013-01-19 07:34:00,33.0,16.0,-100.00,ESE,110,2.0,5.0,49,0.00,,,0.00,1.000000,,2013-01-19 14:34:00,
2013-01-19 07:43:00,33.0,16.0,-100.00,ESE,110,2.0,5.0,49,0.00,,,0.00,1.000000,,2013-01-19 14:43:00,
2013-01-19 07:53:00,33.0,16.0,-100.00,ESE,110,2.0,5.0,49,0.00,,,0.00,1.000000,,2013-01-19 14:53:00,
2013-01-19 08:03:00,33.0,16.0,-100.00,ESE,110,2.0,5.0,49,0.00,,,0.00,1.000000,,2013-01-19 15:03:00,
2013-01-19 08:34:00,40.0,21.0,-100.00,NNE,16,4.0,8.0,47,0.00,,,0.00,16.000000,,2013-01-19 15:34:00,
2013-01-19 08:43:00,40.0,21.0,-100.00,NNE,16,4.0,8.0,47,0.00,,,0.00,16.000000,,2013-01-19 15:43:00,
2013-01-19 08:53:00,40.0,21.0,-100.00,NNE,16,4.0,8.0,47,0.00,,,0.00,16.000000,,2013-01-19 15:53:00,
2013-01-19 09:02:00,40.0,21.0,-100.00,NNE,16,4.0,8.0,47,0.00,,,0.00,16.000000,,2013-01-19 16:02:00,
2013-01-19 09:33:00,53.0,22.0,-100.00,SSE,154,3.0,6.0,29,-99.99,,,0.00,194.000000,,2013-01-19 16:33:00,
2013-01-19 09:43:00,53.0,22.0,-100.00,SSE,154,3.0,6.0,29,-99.99,,,0.00,194.000000,,2013-01-19 16:43:00,
2013-01-19 09:54:00,53.0,22.0,-100.00,SSE,154,3.0,6.0,29,-99.99,,,0.00,194.000000,,2013-01-19 16:54:00,
2013-01-19 10:02:00,53.0,22.0,-100.00,SSE,154,3.0,6.0,29,-99.99,,,0.00,194.000000,,2013-01-19 17:02:00,
2013-01-19 10:37:00,61.0,22.0,-100.00,SW,224,2.0,5.0,22,0.00,,,0.00,388.000000,,2013-01-19 17:37:00,
2013-01-19 10:54:00,61.0,22.0,-100.00,SW,224,2.0,5.0,22,0.00,,,0.00,388.000000,,2013-01-19 17:54:00,
2013-01-19 11:38:00,67.0,21.0,-100.00,WSW,256,2.0,5.0,17,0.00,,,0.00,539.000000,,2013-01-19 18:38:00,
2013-01-19 11:46:00,67.0,21.0,-100.00,WSW,256,2.0,5.0,17,0.00,,,0.00,539.000000,,2013-01-19 18:46:00,
2013-01-19 11:59:00,67.0,21.0,-100.00,WSW,256,2.0,5.0,17,0.00,,,0.00,539.000000,,2013-01-19 18:59:00,
2013-01-19 12:04:00,67.0,21.0,-100.00,WSW,256,2.0,5.0,17,0.00,,,0.00,539.000000,,2013-01-19 19:04:00,
2013-01-19 12:40:00,71.0,18.0,-100.00,West,277,3.0,6.0,13,0.00,,,0.00,636.000000,,2013-01-19 19:40:00,
2013-01-19 12:49:00,71.0,18.0,-100.00,West,277,3.0,6.0,13,0.00,,,0.00,636.000000,,2013-01-19 19:49:00,
2013-01-19 12:55:00,71.0,18.0,-100.00,West,277,3.0,6.0,13,0.00,,,0.00,636.000000,,2013-01-19 19:55:00,
2013-01-19 13:39:00,76.0,16.0,-100.00,WSW,240,4.0,7.0,10,0.00,,,0.00,672.000000,,2013-01-19 20:39:00,
2013-01-19 13:55:00,76.0,16.0,-100.00,WSW,240,4.0,7.0,10,0.00,,,0.00,672.000000,,2013-01-19 20:55:00,
2013-01-19 14:03:00,76.0,16.0,-100.00,WSW,240,4.0,7.0,10,0.00,,,0.00,672.000000,,2013-01-19 21:03:00,
2013-01-19 14:47:00,77.0,16.0,-100.00,West,271,5.0,9.0,10,0.00,,,-99.99,639.000000,,2013-01-19 21:47:00,
2013-01-19 14:52:00,77.0,16.0,-100.00,West,271,5.0,9.0,10,0.00,,,-99.99,639.000000,,2013-01-19 21:52:00,
2013-01-19 14:58:00,77.0,16.0,-100.00,West,271,5.0,9.0,10,0.00,,,-99.99,639.000000,,2013-01-19 21:58:00,
2013-01-19 15:05:00,77.0,16.0,-100.00,West,271,5.0,9.0,10,0.00,,,-99.99,639.000000,,2013-01-19 22:05:00,
2013-01-19 15:35:00,79.0,22.0,-100.00,WSW,241,5.0,9.0,12,0.00,,,0.00,543.000000,,2013-01-19 22:35:00,
2013-01-19 15:48:00,79.0,22.0,-100.00,WSW,241,5.0,9.0,12,0.00,,,0.00,543.000000,,2013-01-19 22:48:00,
2013-01-19 15:56:00,79.0,22.0,-100.00,WSW,241,5.0,9.0,12,0.00,,,0.00,543.000000,,2013-01-19 22:56:00,
2013-01-19 16:05:00,79.0,22.0,-100.00,WSW,241,5.0,9.0,12,0.00,,,0.00,543.000000,,2013-01-19 23:05:00,
2013-01-19 16:35:00,78.0,21.0,-100.00,WNW,293,5.0,9.0,12,0.00,,,0.00,388.000000,,2013-01-19 23:35:00,
2013-01-19 16:49:00,78.0,21.0,-100.00,WNW,293,5.0,9.0,12,0.00,,,0.00,388.000000,,2013-01-19 23:49:00,
2013-01-19 17:06:00,78.0,21.0,-100.00,WNW,293,5.0,9.0,12,0.00,,,0.00,388.000000,,2013-01-20 00:06:00,
2013-01-19 17:38:00,74.0,20.0,-100.00,West,263,6.0,10.0,13,0.00,,,0.00,199.000000,,2013-01-20 00:38:00,
2013-01-19 17:47:00,74.0,20.0,-100.00,West,263,6.0,10.0,13,0.00,,,0.00,199.000000,,2013-01-20 00:47:00,
2013-01-19 17:55:00,74.0,20.0,-100.00,West,263,6.0,10.0,13,0.00,,,0.00,199.000000,,2013-01-20 00:55:00,
2013-01-19 18:03:00,74.0,20.0,-100.00,West,263,6.0,10.0,13,0.00,,,0.00,199.000000,,2013-01-20 01:03:00,
2013-01-19 18:39:00,65.0,22.0,-100.00,SSW,199,3.0,8.0,19,0.00,,,0.00,26.000000,,2013-01-20 01:39:00,
2013-01-19 18:50:00,65.0,22.0,-100.00,SSW,199,3.0,8.0,19,0.00,,,0.00,26.000000,,2013-01-20 01:50:00,
2013-01-19 19:02:00,65.0,22.0,-100.00,SSW,199,3.0,8.0,19,0.00,,,0.00,26.000000,,2013-01-20 02:02:00,
2013-01-19 19:38:00,60.0,20.0,-100.00,East,99,2.0,6.0,21,0.00,,,0.00,1.000000,,2013-01-20 02:38:00,
2013-01-19 19:45:00,60.0,20.0,-100.00,East,99,2.0,6.0,21,0.00,,,0.00,1.000000,,2013-01-20 02:45:00,
2013-01-19 19:57:00,60.0,20.0,-100.00,East,99,2.0,6.0,21,0.00,,,0.00,1.000000,,2013-01-20 02:57:00,
2013-01-19 20:04:00,60.0,20.0,-100.00,East,99,2.0,6.0,21,0.00,,,0.00,1.000000,,2013-01-20 03:04:00,
2013-01-19 20:39:00,54.0,19.0,-100.00,East,91,2.0,5.0,25,0.00,,,0.00,1.000000,,2013-01-20 03:39:00,
2013-01-19 20:46:00,54.0,19.0,-100.00,East,91,2.0,5.0,25,0.00,,,0.00,1.000000,,2013-01-20 03:46:00,
2013-01-19 20:55:00,54.0,19.0,-100.00,East,91,2.0,5.0,25,0.00,,,0.00,1.000000,,2013-01-20 03:55:00,
2013-01-19 21:03:00,54.0,19.0,-100.00,East,91,2.0,5.0,25,0.00,,,0.00,1.000000,,2013-01-20 04:03:00,
2013-01-19 21:38:00,49.0,21.0,-100.00,North,359,3.0,5.0,33,0.00,,,0.00,1.000000,,2013-01-20 04:38:00,
2013-01-19 21:45:00,49.0,21.0,-100.00,North,359,3.0,5.0,33,0.00,,,0.00,1.000000,,2013-01-20 04:45:00,
2013-01-19 21:55:00,49.0,21.0,-100.00,North,359,3.0,5.0,33,0.00,,,0.00,1.000000,,2013-01-20 04:55:00,
2013-01-19 22:02:00,49.0,21.0,-100.00,North,359,3.0,5.0,33,0.00,,,0.00,1.000000,,2013-01-20 05:02:00,
2013-01-19 22:33:00,50.0,25.0,-100.00,NNE,25,5.0,6.0,37,0.00,,,0.00,1.000000,,2013-01-20 05:33:00,
2013-01-19 22:43:00,50.0,25.0,-100.00,NNE,25,5.0,6.0,37,0.00,,,0.00,1.000000,,2013-01-20 05:43:00,
2013-01-19 22:53:00,50.0,25.0,-100.00,NNE,25,5.0,6.0,37,0.00,,,0.00,1.000000,,2013-01-20 05:53:00,
2013-01-19 23:02:00,50.0,25.0,-100.00,NNE,25,5.0,6.0,37,0.00,,,0.00,1.000000,,2013-01-20 06:02:00,
2013-01-19 23:33:00,48.0,18.0,-100.00,NNE,16,2.0,7.0,30,0.00,,,0.00,1.000000,,2013-01-20 06:33:00,
2013-01-19 23:43:00,48.0,18.0,-100.00,NNE,16,2.0,7.0,30,0.00,,,0.00,1.000000,,2013-01-20 06:43:00,
2013-01-19 23:53:00,48.0,18.0,-100.00,NNE,16,2.0,7.0,30,0.00,,,0.00,1.000000,,2013-01-20 06:53:00,